createdAt,value
2019-04-27T00:02:10.653Z,35.47
2019-04-27T00:04:48.548Z,36.33
2019-04-27T00:07:21.176Z,34.87
2019-04-27T00:10:04.287Z,35.13
2019-04-27T00:12:33.138Z,33.33
2019-04-27T00:15:03.199Z,33.73
2019-04-27T00:17:48.572Z,30.13
2019-04-27T00:20:13.545Z,35.07
2019-04-27T00:22:43.622Z,47.23
2019-04-27T00:25:13.122Z,35.20
2019-04-27T00:27:41.389Z,34.93
2019-04-27T00:30:09.772Z,36.00
2019-04-27T00:32:39.789Z,34.27
2019-04-27T00:35:09.613Z,37.77
2019-04-27T00:37:52.945Z,33.97
2019-04-27T00:40:23.577Z,34.13
2019-04-27T00:42:54.019Z,34.73
2019-04-27T00:45:23.436Z,32.43
2019-04-27T00:47:58.985Z,32.60
2019-04-27T00:50:23.416Z,37.87
2019-04-27T00:52:53.206Z,31.60
2019-04-27T00:55:23.328Z,32.83
2019-04-27T00:58:09.662Z,37.40
2019-04-27T01:00:39.515Z,35.90
2019-04-27T01:03:13.860Z,33.70
2019-04-27T01:05:43.048Z,30.60
2019-04-27T01:08:11.491Z,36.93
2019-04-27T01:10:39.700Z,33.57
2019-04-27T01:13:08.193Z,35.37
2019-04-27T01:15:36.367Z,38.80
2019-04-27T01:18:11.910Z,39.20
2019-04-27T01:20:34.717Z,33.47
2019-04-27T01:23:02.957Z,35.80
2019-04-27T01:25:42.027Z,37.40
2019-04-27T01:28:14.507Z,34.57
2019-04-27T01:30:46.983Z,35.20
2019-04-27T01:33:15.175Z,35.23
2019-04-27T01:35:43.364Z,37.73
2019-04-27T01:38:11.548Z,35.63
2019-04-27T01:40:39.791Z,38.80
2019-04-27T01:43:09.135Z,37.47
2019-04-27T01:45:38.993Z,47.30
2019-04-27T01:48:20.872Z,35.73
2019-04-27T01:50:39.061Z,38.23
2019-04-27T01:53:08.851Z,38.30
2019-04-27T01:55:38.624Z,42.40
2019-04-27T01:58:10.718Z,40.50
2019-04-27T02:00:40.060Z,42.30
2019-04-27T02:03:09.936Z,38.43
2019-04-27T02:05:39.808Z,38.37
2019-04-27T02:08:09.524Z,36.77
2019-04-27T02:10:39.417Z,37.90
2019-04-27T02:13:08.982Z,36.20
2019-04-27T02:15:37.292Z,35.00
2019-04-27T02:18:06.285Z,38.57
2019-04-27T02:20:34.498Z,34.00
2019-04-27T02:23:02.751Z,34.30
2019-04-27T02:25:31.007Z,34.90
2019-04-27T02:28:06.561Z,32.40
2019-04-27T02:30:40.914Z,34.67
2019-04-27T02:33:22.233Z,33.17
2019-04-27T02:35:50.761Z,31.47
2019-04-27T02:38:20.133Z,31.50
2019-04-27T02:40:50.172Z,29.47
2019-04-27T02:43:20.403Z,25.70
2019-04-27T02:45:50.317Z,23.90
2019-04-27T02:48:19.938Z,24.33
2019-04-27T02:50:50.175Z,27.27
2019-04-27T02:53:20.247Z,26.40
2019-04-27T02:55:49.932Z,24.87
2019-04-27T02:58:21.476Z,23.47
2019-04-27T03:00:50.139Z,24.53
2019-04-27T03:03:20.392Z,22.57
2019-04-27T03:05:50.356Z,21.53
2019-04-27T03:08:20.087Z,24.00
2019-04-27T03:10:50.387Z,23.33
2019-04-27T03:13:22.238Z,24.00
2019-04-27T03:15:55.099Z,23.60
2019-04-27T03:18:29.773Z,19.20
2019-04-27T03:21:00.315Z,22.90
2019-04-27T03:23:30.428Z,18.40
2019-04-27T03:26:00.535Z,21.03
2019-04-27T03:28:29.821Z,18.37
2019-04-27T03:31:02.062Z,18.43
2019-04-27T03:33:31.947Z,18.70
2019-04-27T03:36:02.083Z,14.53
2019-04-27T03:38:30.063Z,14.20
2019-04-27T03:41:00.293Z,14.50
2019-04-27T03:43:30.048Z,16.47
2019-04-27T03:46:00.193Z,17.17
2019-04-27T03:48:29.374Z,15.07
2019-04-27T03:51:02.003Z,15.20
2019-04-27T03:53:34.901Z,15.97
2019-04-27T03:56:04.717Z,14.90
2019-04-27T03:58:34.546Z,16.17
2019-04-27T04:01:02.775Z,17.20
2019-04-27T04:03:31.045Z,19.57
2019-04-27T04:06:00.284Z,18.57
2019-04-27T04:08:30.698Z,17.87
2019-04-27T04:11:00.302Z,18.93
2019-04-27T04:13:33.056Z,19.80
2019-04-27T04:16:20.170Z,19.27
2019-04-27T04:19:02.478Z,21.53
2019-04-27T04:21:30.701Z,21.30
2019-04-27T04:24:00.863Z,22.13
2019-04-27T04:26:29.448Z,23.30
2019-04-27T04:28:59.878Z,21.90
2019-04-27T04:31:32.590Z,24.70
2019-04-27T04:33:59.749Z,20.90
2019-04-27T04:36:30.135Z,22.57
2019-04-27T04:39:00.500Z,23.13
2019-04-27T04:41:50.678Z,19.80
2019-04-27T04:44:22.034Z,28.97
2019-04-27T04:47:01.000Z,23.10
2019-04-27T04:49:29.736Z,22.20
2019-04-27T04:51:59.448Z,26.27
2019-04-27T04:54:29.916Z,22.50
2019-04-27T04:56:59.475Z,25.60
2019-04-27T04:59:29.066Z,24.97
2019-04-27T05:02:01.866Z,26.73
2019-04-27T05:04:29.057Z,25.53
2019-04-27T05:06:59.037Z,26.30
2019-04-27T05:09:27.403Z,25.80
2019-04-27T05:11:55.618Z,26.10
2019-04-27T05:14:23.836Z,22.60
2019-04-27T05:16:52.035Z,23.67
2019-04-27T05:19:20.246Z,28.20
2019-04-27T05:21:49.179Z,28.63
2019-04-27T05:24:19.038Z,28.90
2019-04-27T05:26:48.751Z,28.30
2019-04-27T05:29:18.913Z,27.67
2019-04-27T05:31:48.800Z,30.77
2019-04-27T05:34:16.899Z,29.97
2019-04-27T05:36:48.886Z,31.33
2019-04-27T05:39:18.163Z,33.57
2019-04-27T05:41:44.937Z,29.83
2019-04-27T05:44:19.025Z,36.30
2019-04-27T05:46:58.819Z,32.23
2019-04-27T05:49:29.501Z,34.90
2019-04-27T05:51:59.364Z,29.97
2019-04-27T05:54:29.378Z,31.73
2019-04-27T05:56:59.204Z,28.77
2019-04-27T05:59:29.648Z,29.33
2019-04-27T06:01:59.227Z,33.07
2019-04-27T06:04:28.978Z,34.10
2019-04-27T06:07:00.537Z,30.33
2019-04-27T06:09:28.796Z,33.90
2019-04-27T06:11:58.929Z,28.53
2019-04-27T06:14:29.049Z,33.07
2019-04-27T06:16:59.462Z,29.83
2019-04-27T06:19:29.004Z,26.10
2019-04-27T06:21:57.107Z,29.43
2019-04-27T06:24:25.292Z,28.40
2019-04-27T06:26:53.484Z,28.70
2019-04-27T06:29:21.665Z,29.47
2019-04-27T06:31:49.904Z,28.63
2019-04-27T06:34:19.386Z,26.80
2019-04-27T06:36:48.644Z,29.70
2019-04-27T06:39:20.275Z,28.07
2019-04-27T06:41:46.986Z,27.30
2019-04-27T06:44:15.175Z,31.33
2019-04-27T06:46:43.408Z,31.17
2019-04-27T06:49:11.626Z,28.97
2019-04-27T06:51:40.139Z,30.53
2019-04-27T06:54:09.289Z,34.80
2019-04-27T06:56:38.950Z,31.93
2019-04-27T06:59:08.778Z,37.07
2019-04-27T07:01:38.790Z,37.13
2019-04-27T07:04:10.478Z,36.63
2019-04-27T07:06:36.981Z,34.77
2019-04-27T07:09:09.589Z,39.10
2019-04-27T07:11:39.390Z,41.50
2019-04-27T07:14:11.240Z,39.90
2019-04-27T07:16:39.211Z,42.50
2019-04-27T07:19:09.282Z,42.73
2019-04-27T07:21:37.448Z,35.80
2019-04-27T07:24:05.672Z,38.17
2019-04-27T07:26:33.924Z,34.20
2019-04-27T07:29:02.152Z,44.80
2019-04-27T07:31:31.825Z,38.93
2019-04-27T07:34:00.308Z,37.00
2019-04-27T07:36:28.999Z,37.30
2019-04-27T07:38:57.469Z,37.97
2019-04-27T07:41:25.701Z,32.23
2019-04-27T07:44:10.769Z,33.30
2019-04-27T07:46:38.981Z,35.00
2019-04-27T07:49:07.186Z,32.57
2019-04-27T07:51:35.365Z,33.30
2019-04-27T07:54:03.619Z,32.37
2019-04-27T07:56:31.816Z,33.43
2019-04-27T07:59:00.040Z,35.20
2019-04-27T08:01:29.381Z,33.00
2019-04-27T08:03:59.380Z,32.57
2019-04-27T08:06:29.029Z,31.90
2019-04-27T08:08:59.192Z,29.53
2019-04-27T08:11:29.147Z,30.17
2019-04-27T08:13:58.796Z,33.27
2019-04-27T08:16:29.696Z,31.70
2019-04-27T08:18:59.812Z,35.47
2019-04-27T08:21:28.879Z,34.90
2019-04-27T08:23:58.619Z,34.80
2019-04-27T08:26:28.719Z,34.23
2019-04-27T08:29:02.880Z,33.03
2019-04-27T08:31:38.734Z,35.27
2019-04-27T08:34:08.628Z,37.60
2019-04-27T08:36:38.765Z,37.03
2019-04-27T08:39:08.710Z,38.50
2019-04-27T08:41:37.119Z,37.13
2019-04-27T08:44:05.314Z,37.90
2019-04-27T08:46:33.554Z,38.43
2019-04-27T08:49:01.769Z,36.23
2019-04-27T08:51:29.974Z,40.90
2019-04-27T08:53:59.126Z,40.43
2019-04-27T08:56:27.420Z,44.13
2019-04-27T08:58:55.615Z,38.97
2019-04-27T09:01:23.837Z,39.23
2019-04-27T09:03:52.073Z,39.53
2019-04-27T09:06:19.835Z,38.67
2019-04-27T09:08:49.774Z,35.47
2019-04-27T09:11:22.332Z,37.73
2019-04-27T09:13:52.191Z,35.57
2019-04-27T09:16:22.043Z,35.87
2019-04-27T09:18:53.173Z,37.87
2019-04-27T09:21:22.336Z,39.03
2019-04-27T09:23:50.531Z,32.93
2019-04-27T09:26:18.825Z,35.97
2019-04-27T09:28:47.008Z,37.97
2019-04-27T09:31:15.204Z,38.90
2019-04-27T09:33:43.421Z,34.50
2019-04-27T09:36:11.658Z,37.87
2019-04-27T09:38:39.869Z,34.70
2019-04-27T09:41:08.044Z,34.40
2019-04-27T09:43:36.786Z,33.73
2019-04-27T09:46:05.831Z,29.40
2019-04-27T09:48:34.144Z,29.47
2019-04-27T09:51:02.364Z,28.53
2019-04-27T09:53:30.549Z,30.77
2019-04-27T09:55:58.747Z,27.87
2019-04-27T09:58:26.969Z,26.50
2019-04-27T10:00:56.753Z,23.53
2019-04-27T10:03:26.641Z,23.20
2019-04-27T10:05:56.884Z,28.57
2019-04-27T10:08:26.177Z,30.57
2019-04-27T10:10:54.514Z,28.63
2019-04-27T10:13:22.701Z,28.80
2019-04-27T10:15:50.881Z,28.23
2019-04-27T10:18:19.101Z,25.73
2019-04-27T10:20:58.698Z,24.13
2019-04-27T10:23:17.237Z,23.87
2019-04-27T10:25:45.822Z,29.47
2019-04-27T10:28:14.117Z,29.60
2019-04-27T10:30:42.347Z,27.37
2019-04-27T10:33:10.565Z,26.20
2019-04-27T10:35:38.863Z,25.17
2019-04-27T10:38:07.155Z,25.63
2019-04-27T10:40:35.378Z,26.67
2019-04-27T10:43:03.596Z,24.70
2019-04-27T10:45:31.812Z,23.90
2019-04-27T10:48:00.047Z,24.57
2019-04-27T10:50:28.260Z,28.90
2019-04-27T10:52:59.099Z,25.07
2019-04-27T10:55:26.341Z,25.83
2019-04-27T10:57:54.595Z,26.50
2019-04-27T11:00:25.666Z,20.90
2019-04-27T11:02:54.063Z,23.67
2019-04-27T11:05:40.320Z,22.40
2019-04-27T11:08:08.551Z,19.97
2019-04-27T11:10:36.761Z,20.27
2019-04-27T11:13:06.277Z,20.20
2019-04-27T11:15:34.707Z,23.67
2019-04-27T11:18:02.927Z,20.07
2019-04-27T11:20:31.180Z,19.10
2019-04-27T11:23:07.104Z,18.73
2019-04-27T11:25:29.307Z,22.10
2019-04-27T11:27:57.869Z,19.03
2019-04-27T11:30:26.341Z,17.40
2019-04-27T11:32:58.757Z,17.53
2019-04-27T11:35:26.096Z,15.10
2019-04-27T11:37:55.946Z,14.73
2019-04-27T11:40:24.508Z,14.13
2019-04-27T11:42:52.733Z,15.60
2019-04-27T11:45:20.947Z,20.50
2019-04-27T11:47:49.127Z,16.53
2019-04-27T11:50:17.611Z,17.73
2019-04-27T11:52:45.845Z,16.70
2019-04-27T11:55:15.941Z,15.90
2019-04-27T11:57:44.003Z,17.27
2019-04-27T12:00:14.296Z,15.97
2019-04-27T12:02:42.558Z,19.60
2019-04-27T12:05:11.008Z,14.90
2019-04-27T12:07:39.183Z,13.07
2019-04-27T12:10:07.577Z,15.13
2019-04-27T12:12:36.302Z,13.67
2019-04-27T12:15:08.789Z,11.63
2019-04-27T12:17:36.984Z,13.70
2019-04-27T12:20:06.713Z,13.17
2019-04-27T12:22:34.914Z,14.73
2019-04-27T12:25:04.031Z,13.10
2019-04-27T12:27:42.901Z,11.60
2019-04-27T12:30:12.828Z,13.30
2019-04-27T12:32:41.058Z,14.67
2019-04-27T12:35:09.303Z,14.27
2019-04-27T12:37:37.533Z,13.77
2019-04-27T12:40:06.321Z,15.00
2019-04-27T12:42:36.365Z,12.40
2019-04-27T12:45:05.857Z,14.63
2019-04-27T12:47:34.104Z,15.20
2019-04-27T12:50:02.503Z,16.50
2019-04-27T12:52:30.675Z,16.10
2019-04-27T12:55:00.537Z,18.73
2019-04-27T12:57:48.656Z,17.27
2019-04-27T13:00:21.064Z,17.73
2019-04-27T13:02:49.245Z,19.40
2019-04-27T13:05:17.441Z,17.60
2019-04-27T13:07:45.624Z,15.23
2019-04-27T13:10:15.822Z,14.93
2019-04-27T13:12:43.937Z,18.30
2019-04-27T13:15:12.337Z,15.70
2019-04-27T13:17:40.519Z,17.93
2019-04-27T13:20:09.123Z,18.10
2019-04-27T13:22:37.388Z,18.60
2019-04-27T13:25:06.772Z,17.00
2019-04-27T13:27:36.658Z,16.73
2019-04-27T13:30:07.375Z,16.47
2019-04-27T13:32:36.445Z,17.23
2019-04-27T13:35:06.264Z,17.00
2019-04-27T13:37:39.172Z,14.80
2019-04-27T13:40:09.696Z,14.17
2019-04-27T13:42:45.737Z,8.50
2019-04-27T13:45:16.557Z,9.13
2019-04-27T13:47:46.542Z,6.63
2019-04-27T13:50:16.449Z,6.87
2019-04-27T13:52:46.611Z,7.13
2019-04-27T13:55:15.923Z,5.23
2019-04-27T13:57:50.547Z,8.03
2019-04-27T14:00:14.787Z,5.03
2019-04-27T14:02:48.656Z,6.13
2019-04-27T14:05:16.854Z,5.20
2019-04-27T14:07:45.073Z,4.80
2019-04-27T14:10:13.261Z,4.10
2019-04-27T14:12:41.433Z,3.50
2019-04-27T14:15:09.795Z,3.47
2019-04-27T14:17:39.196Z,4.47
2019-04-27T14:20:09.584Z,5.87
2019-04-27T14:22:37.969Z,3.80
2019-04-27T14:25:06.252Z,5.33
2019-04-27T14:27:38.839Z,3.80
2019-04-27T14:30:06.716Z,5.60
2019-04-27T14:32:34.917Z,4.50
2019-04-27T14:35:03.759Z,3.63
2019-04-27T14:37:31.943Z,3.53
2019-04-27T14:40:00.150Z,5.00
2019-04-27T14:42:28.426Z,3.33
2019-04-27T14:44:56.596Z,5.23
2019-04-27T14:47:24.805Z,5.17
2019-04-27T14:49:53.004Z,3.63
2019-04-27T14:52:21.209Z,3.53
2019-04-27T14:54:50.895Z,4.07
2019-04-27T14:57:20.508Z,3.40
2019-04-27T14:59:49.384Z,2.73
2019-04-27T15:02:18.561Z,3.70
2019-04-27T15:04:47.254Z,3.50
2019-04-27T15:09:43.004Z,4.03
2019-04-27T15:12:11.183Z,3.43
2019-04-27T15:14:39.384Z,4.97
2019-04-27T15:17:07.662Z,4.20
2019-04-27T15:19:37.500Z,5.73
2019-04-27T15:22:07.316Z,4.17
2019-04-27T15:24:35.491Z,4.43
2019-04-27T15:27:03.677Z,4.70
2019-04-27T15:29:32.647Z,5.10
2019-04-27T15:32:05.940Z,5.33
2019-04-27T15:34:41.852Z,6.10
2019-04-27T15:37:14.537Z,6.30
2019-04-27T15:39:50.499Z,6.90
2019-04-27T15:42:41.559Z,5.73
2019-04-27T15:45:08.939Z,5.20
2019-04-27T15:47:38.232Z,7.97
2019-04-27T15:50:07.968Z,5.77
2019-04-27T15:52:36.280Z,4.93
2019-04-27T15:55:11.103Z,5.13
2019-04-27T15:57:34.799Z,3.93
2019-04-27T16:00:04.492Z,4.70
2019-04-27T16:02:32.702Z,5.10
2019-04-27T16:05:00.864Z,5.90
2019-04-27T16:07:31.733Z,6.43
2019-04-27T16:10:02.545Z,5.60
2019-04-27T16:12:28.812Z,5.70
2019-04-27T16:14:58.032Z,5.57
2019-04-27T16:17:28.646Z,6.13
2019-04-27T16:19:57.997Z,4.37
2019-04-27T16:22:26.877Z,5.60
2019-04-27T16:24:55.960Z,5.50
2019-04-27T16:27:25.842Z,6.28
2019-04-27T16:29:54.055Z,6.28
2019-04-27T16:32:22.373Z,6.80
2019-04-27T16:34:50.577Z,6.63
2019-04-27T16:37:22.464Z,7.17
2019-04-27T16:39:50.293Z,6.77
2019-04-27T16:42:18.670Z,7.17
2019-04-27T16:44:51.448Z,8.80
2019-04-27T16:47:23.874Z,6.63
2019-04-27T16:49:48.351Z,7.73
2019-04-27T16:52:18.773Z,11.30
2019-04-27T16:54:49.919Z,9.40
2019-04-27T16:57:18.063Z,6.50
2019-04-27T16:59:56.022Z,9.40
2019-04-27T17:02:17.350Z,8.10
2019-04-27T17:04:52.838Z,9.03
2019-04-27T17:07:15.932Z,8.87
2019-04-27T17:09:46.236Z,8.00
2019-04-27T17:12:14.019Z,9.13
2019-04-27T17:14:48.721Z,13.23
2019-04-27T17:17:33.347Z,10.03
2019-04-27T17:20:03.320Z,11.07
2019-04-27T17:22:31.525Z,8.67
2019-04-27T17:24:59.699Z,8.10
2019-04-27T17:27:31.743Z,8.20
2019-04-27T17:30:01.633Z,8.23
2019-04-27T17:32:33.642Z,9.93
2019-04-27T17:35:04.987Z,8.83
2019-04-27T17:37:33.821Z,8.33
2019-04-27T17:40:00.902Z,8.20
2019-04-27T17:42:30.715Z,9.20
2019-04-27T17:45:00.449Z,8.97
2019-04-27T17:47:29.931Z,8.00
2019-04-27T17:49:58.433Z,11.37
2019-04-27T17:52:26.650Z,10.20
2019-04-27T17:54:54.811Z,8.73
2019-04-27T17:57:26.644Z,10.27
2019-04-27T17:59:58.981Z,11.93
2019-04-27T18:02:22.810Z,9.97
2019-04-27T18:04:51.090Z,12.70
2019-04-27T18:07:19.285Z,10.50
2019-04-27T18:09:48.353Z,11.60
2019-04-27T18:12:18.367Z,11.77
2019-04-27T18:14:47.983Z,10.13
2019-04-27T18:17:19.615Z,13.30
2019-04-27T18:19:47.938Z,10.60
2019-04-27T18:22:17.890Z,11.40
2019-04-27T18:24:47.658Z,12.30
2019-04-27T18:27:29.677Z,9.23
2019-04-27T18:30:10.451Z,10.60
2019-04-27T18:32:40.407Z,12.37
2019-04-27T18:35:08.589Z,13.77
2019-04-27T18:37:36.768Z,14.20
2019-04-27T18:40:05.215Z,13.30
2019-04-27T18:42:33.437Z,14.97
2019-04-27T18:45:06.821Z,14.23
2019-04-27T18:47:35.353Z,15.83
2019-04-27T18:50:11.166Z,13.10
2019-04-27T18:52:47.508Z,14.23
2019-04-27T18:55:16.861Z,14.63
2019-04-27T18:57:46.038Z,13.10
2019-04-27T19:00:15.417Z,14.33
2019-04-27T19:02:43.645Z,14.57
2019-04-27T19:05:12.025Z,16.73
2019-04-27T19:07:40.227Z,13.07
2019-04-27T19:10:08.961Z,16.03
2019-04-27T19:12:39.281Z,12.80
2019-04-27T19:15:08.301Z,15.40
2019-04-27T19:17:38.496Z,13.77
2019-04-27T19:20:09.837Z,11.97
2019-04-27T19:22:38.460Z,12.70
2019-04-27T19:25:09.640Z,11.67
2019-04-27T19:27:54.750Z,8.17
2019-04-27T19:30:24.591Z,9.00
2019-04-27T19:32:52.873Z,8.53
2019-04-27T19:35:21.186Z,5.10
2019-04-27T19:37:49.380Z,6.10
2019-04-27T19:40:18.746Z,5.23
2019-04-27T19:42:48.635Z,6.13
2019-04-27T19:45:17.018Z,4.13
2019-04-27T19:47:45.208Z,4.37
2019-04-27T19:50:13.409Z,4.30
2019-04-27T19:52:41.575Z,4.13
2019-04-27T19:55:09.776Z,5.87
2019-04-27T19:57:40.431Z,4.50
2019-04-27T20:00:09.551Z,4.10
2019-04-27T20:02:38.053Z,4.70
2019-04-27T20:05:06.752Z,3.93
2019-04-27T20:07:34.962Z,5.80
2019-04-27T20:10:04.904Z,5.00
2019-04-27T20:12:33.109Z,5.47
2019-04-27T20:15:02.263Z,6.97
2019-04-27T20:17:32.145Z,3.90
2019-04-27T20:20:00.827Z,5.87
2019-04-27T20:22:29.267Z,3.30
2019-04-27T20:24:57.465Z,5.87
2019-04-27T20:27:25.664Z,3.40
2019-04-27T20:29:53.897Z,4.83
2019-04-27T20:32:22.075Z,4.27
2019-04-27T20:34:51.332Z,6.00
2019-04-27T20:37:21.065Z,4.20
2019-04-27T20:39:51.238Z,4.70
2019-04-27T20:42:20.944Z,5.73
2019-04-27T20:44:49.111Z,5.80
2019-04-27T20:47:17.325Z,4.93
2019-04-27T20:49:45.540Z,4.93
2019-04-27T20:52:15.349Z,5.20
2019-04-27T20:54:43.586Z,6.73
2019-04-27T20:57:11.793Z,3.90
2019-04-27T20:59:39.996Z,3.63
2019-04-27T21:02:26.136Z,4.47
2019-04-27T21:04:55.984Z,4.10
2019-04-27T21:07:37.989Z,3.80
2019-04-27T21:10:06.539Z,5.43
2019-04-27T21:12:34.779Z,4.47
2019-04-27T21:15:03.357Z,4.70
2019-04-27T21:17:31.573Z,4.90
2019-04-27T21:19:59.813Z,3.70
2019-04-27T21:22:27.976Z,4.83
2019-04-27T21:24:56.152Z,5.00
2019-04-27T21:27:24.362Z,3.90
2019-04-27T21:29:53.634Z,6.40
2019-04-27T21:32:21.941Z,3.33
2019-04-27T21:34:51.544Z,4.43
2019-04-27T21:37:19.954Z,4.80
2019-04-27T21:39:48.119Z,7.70
2019-04-27T21:42:16.318Z,3.90
2019-04-27T21:44:44.491Z,5.43
2019-04-27T21:47:12.664Z,3.50
2019-04-27T21:49:41.599Z,3.80
2019-04-27T21:52:23.585Z,6.20
2019-04-27T21:54:52.390Z,5.40
2019-04-27T21:57:21.061Z,4.37
2019-04-27T21:59:49.344Z,5.87
2019-04-27T22:02:18.689Z,6.10
2019-04-27T22:04:46.900Z,5.90
2019-04-27T22:07:15.097Z,4.77
2019-04-27T22:09:43.385Z,7.20
2019-04-27T22:12:11.640Z,5.33
2019-04-27T22:14:39.841Z,5.90
2019-04-27T22:17:08.041Z,7.20
2019-04-27T22:19:36.317Z,7.63
2019-04-27T22:22:06.252Z,6.33
2019-04-27T22:24:36.088Z,9.13
2019-04-27T22:27:04.298Z,7.10
2019-04-27T22:29:32.592Z,7.37
2019-04-27T22:32:01.638Z,5.70
2019-04-27T22:34:31.227Z,6.80
2019-04-27T22:37:00.936Z,6.97
2019-04-27T22:39:33.730Z,6.97
2019-04-27T22:42:20.719Z,7.83
2019-04-27T22:44:54.270Z,5.83
2019-04-27T22:47:22.477Z,5.77
2019-04-27T22:49:50.724Z,5.53
2019-04-27T22:52:18.902Z,5.83
2019-04-27T22:54:47.105Z,5.37
2019-04-27T22:57:20.786Z,4.93
2019-04-27T22:59:56.928Z,6.10
2019-04-27T23:02:31.720Z,4.73
2019-04-27T23:05:02.115Z,7.60
2019-04-27T23:07:31.546Z,7.00
2019-04-27T23:10:01.563Z,7.33
2019-04-27T23:12:31.553Z,7.33
2019-04-27T23:14:59.680Z,5.20
2019-04-27T23:17:31.549Z,5.07
2019-04-27T23:20:01.217Z,5.50
2019-04-27T23:22:29.264Z,5.27
2019-04-27T23:24:57.462Z,5.30
2019-04-27T23:27:25.666Z,6.43
2019-04-27T23:29:53.840Z,6.33
2019-04-27T23:32:23.798Z,7.50
2019-04-27T23:34:51.970Z,6.30
2019-04-27T23:37:20.199Z,5.37
2019-04-27T23:39:48.398Z,7.10
2019-04-27T23:42:16.564Z,6.07
2019-04-27T23:44:44.748Z,7.67
2019-04-27T23:47:12.931Z,7.03
2019-04-27T23:49:41.137Z,6.30
2019-04-27T23:52:11.015Z,6.50
2019-04-27T23:54:42.742Z,7.00
2019-04-27T23:57:09.103Z,7.40
2019-04-27T23:59:37.320Z,8.90
